Terminal Aerodrome Forecast
Issued by NWS Sterling, VA

Home | Current Version | Previous Version | Text Only | Print | Product List | Glossary On
Versions: 1 2 3 4 5 6 7 8 9 10 11 12 13 14 15 16 17 18 19 20 21 22 23 24
000
FTUS41 KLWX 300800 AAA
TAFIAD
TAF AMD
KIAD 300856Z 3009/0112 21006KT 1/2SM FG VV002
     FM301000 VRB03KT 1SM BR FEW008 SCT025
     FM301300 VRB03KT P6SM FEW025 SCT050
     FM010000 VRB03KT P6SM BKN090=

USA.gov is the U.S. government's official web portal to all federal, state and local government web resources and services.